Terminal Aerodrome Forecast
Issued by NWS Jackson, KY

Home | Current Version | Previous Version | Text Only | Print | Product List | Glossary On
Versions: 1 2 3 4 5 6 7 8 9 10 11 12 13 14 15 16 17 18 19 20 21 22 23 24
000
FTUS43 KJKL 191730
TAFLOZ
TAF
KLOZ 191730Z 1918/2018 VRB03KT P6SM VCSH OVC040
     FM192000 15004KT 6SM -SHRA SCT015 OVC035
     FM200700 19006KT 3SM -SHRA BR OVC015
     FM201000 19006KT P6SM BKN005 OVC015
     FM201600 20006KT P6SM BKN015=

USA.gov is the U.S. government's official web portal to all federal, state and local government web resources and services.